createdAt,value
2017-10-03T00:01:41.877Z,1.70
2017-10-03T00:04:44.229Z,1.80
2017-10-03T00:07:46.321Z,1.53
2017-10-03T00:10:48.643Z,1.77
2017-10-03T00:13:50.664Z,1.48
2017-10-03T00:16:53.037Z,1.55
2017-10-03T00:19:54.985Z,1.27
2017-10-03T00:22:58.236Z,1.40
2017-10-03T00:26:00.174Z,1.20
2017-10-03T00:29:02.561Z,1.10
2017-10-03T00:32:04.492Z,1.07
2017-10-03T00:35:06.758Z,1.20
2017-10-03T00:38:08.679Z,1.13
2017-10-03T00:41:11.255Z,1.20
2017-10-03T00:44:13.186Z,1.37
2017-10-03T00:47:15.455Z,1.20
2017-10-03T00:50:17.385Z,1.10
2017-10-03T00:53:20.474Z,0.90
2017-10-03T00:56:22.412Z,1.07
2017-10-03T00:59:24.786Z,1.10
2017-10-03T01:02:26.755Z,1.20
2017-10-03T01:05:29.006Z,1.60
2017-10-03T01:08:30.974Z,1.87
2017-10-03T01:11:33.306Z,1.77
2017-10-03T01:14:36.410Z,1.37
2017-10-03T01:17:38.858Z,1.63
2017-10-03T01:20:40.803Z,1.83
2017-10-03T01:23:43.089Z,2.40
2017-10-03T01:26:46.197Z,2.23
2017-10-03T01:29:48.577Z,1.97
2017-10-03T01:32:50.618Z,2.60
2017-10-03T01:35:53.082Z,2.60
2017-10-03T01:38:55.042Z,2.43
2017-10-03T01:41:57.907Z,2.60
2017-10-03T01:44:59.948Z,2.63
2017-10-03T01:48:02.332Z,3.20
2017-10-03T01:51:04.266Z,2.77
2017-10-03T01:54:06.622Z,2.80
2017-10-03T01:57:08.609Z,2.70
2017-10-03T02:00:10.910Z,2.83
2017-10-03T02:03:12.891Z,2.97
2017-10-03T02:06:15.231Z,3.07
2017-10-03T02:09:17.277Z,3.80
2017-10-03T02:12:19.640Z,3.07
2017-10-03T02:15:21.573Z,3.67
2017-10-03T02:18:24.076Z,3.30
2017-10-03T02:21:26.018Z,3.17
2017-10-03T02:24:28.370Z,3.10
2017-10-03T02:27:30.308Z,3.23
2017-10-03T02:30:32.675Z,4.23
2017-10-03T02:33:34.722Z,3.53
2017-10-03T02:36:37.100Z,3.63
2017-10-03T02:39:41.272Z,3.10
2017-10-03T02:42:43.620Z,3.80
2017-10-03T02:45:45.560Z,3.10
2017-10-03T02:48:47.932Z,3.43
2017-10-03T02:51:49.864Z,3.50
2017-10-03T02:54:52.117Z,3.23
2017-10-03T02:57:54.036Z,2.97
2017-10-03T03:00:56.436Z,3.73
2017-10-03T03:03:58.361Z,3.43
2017-10-03T03:07:01.464Z,3.63
2017-10-03T03:10:03.512Z,3.53
2017-10-03T03:13:05.855Z,3.23
2017-10-03T03:16:07.798Z,2.97
2017-10-03T03:19:10.105Z,3.40
2017-10-03T03:22:12.035Z,3.73
2017-10-03T03:25:14.388Z,2.80
2017-10-03T03:28:16.414Z,3.10
2017-10-03T03:31:18.783Z,3.27
2017-10-03T03:34:20.730Z,3.13
2017-10-03T03:37:23.087Z,3.57
2017-10-03T03:40:25.034Z,3.53
2017-10-03T03:43:27.408Z,3.23
2017-10-03T03:46:29.455Z,3.70
2017-10-03T03:49:31.791Z,3.37
2017-10-03T03:52:33.732Z,3.30
2017-10-03T03:55:36.103Z,3.83
2017-10-03T03:58:38.044Z,3.37
2017-10-03T04:01:40.398Z,3.40
2017-10-03T04:04:42.326Z,3.47
2017-10-03T04:07:45.434Z,3.67
2017-10-03T04:10:47.360Z,3.43
2017-10-03T04:13:49.627Z,4.80
2017-10-03T04:16:51.577Z,3.83
2017-10-03T04:19:53.948Z,3.87
2017-10-03T04:22:55.992Z,3.33
2017-10-03T04:25:58.343Z,3.73
2017-10-03T04:29:00.267Z,3.30
2017-10-03T04:32:03.385Z,3.33
2017-10-03T04:35:05.432Z,3.53
2017-10-03T04:38:07.879Z,3.73
2017-10-03T04:41:09.798Z,3.50
2017-10-03T04:44:12.902Z,3.67
2017-10-03T04:47:14.840Z,4.03
2017-10-03T04:50:17.215Z,3.43
2017-10-03T04:53:19.245Z,3.50
2017-10-03T04:56:21.620Z,3.03
2017-10-03T04:59:23.555Z,4.03
2017-10-03T05:02:25.925Z,4.37
2017-10-03T05:05:27.879Z,3.90
2017-10-03T05:08:30.241Z,4.30
2017-10-03T05:11:32.899Z,3.60
2017-10-03T05:14:35.160Z,3.87
2017-10-03T05:17:37.103Z,3.73
2017-10-03T05:20:39.362Z,3.43
2017-10-03T05:23:41.295Z,3.40
2017-10-03T05:26:43.641Z,3.73
2017-10-03T05:29:45.567Z,3.53
2017-10-03T05:32:48.672Z,4.20
2017-10-03T05:35:50.618Z,4.07
2017-10-03T05:38:52.884Z,4.17
2017-10-03T05:41:54.834Z,3.90
2017-10-03T05:44:57.183Z,3.87
2017-10-03T05:47:59.121Z,4.10
2017-10-03T05:51:01.515Z,4.90
2017-10-03T05:54:03.948Z,4.63
2017-10-03T05:57:06.295Z,4.27
2017-10-03T06:00:08.285Z,4.37
2017-10-03T06:03:11.379Z,4.40
2017-10-03T06:06:14.089Z,4.07
2017-10-03T06:09:16.453Z,4.07
2017-10-03T06:12:18.399Z,4.07
2017-10-03T06:15:20.759Z,4.03
2017-10-03T06:18:22.682Z,3.90
2017-10-03T06:21:25.766Z,3.47
2017-10-03T06:24:27.706Z,4.03
2017-10-03T06:27:30.797Z,4.10
2017-10-03T06:30:32.750Z,4.20
2017-10-03T06:33:35.104Z,3.77
2017-10-03T06:36:37.056Z,3.57
2017-10-03T06:39:39.419Z,3.63
2017-10-03T06:42:41.477Z,3.47
2017-10-03T06:45:43.809Z,3.83
2017-10-03T06:48:45.776Z,2.97
2017-10-03T06:51:48.124Z,3.50
2017-10-03T06:54:50.066Z,3.00
2017-10-03T06:57:52.333Z,3.53
2017-10-03T07:00:55.207Z,3.50
2017-10-03T07:03:57.572Z,2.77
2017-10-03T07:06:59.525Z,3.20
2017-10-03T07:10:01.852Z,4.07
2017-10-03T07:13:03.920Z,3.00
2017-10-03T07:16:06.279Z,3.00
2017-10-03T07:19:08.328Z,3.72
2017-10-03T07:22:10.616Z,3.72
2017-10-03T07:25:12.631Z,3.30
2017-10-03T07:28:14.965Z,3.87
2017-10-03T07:31:16.945Z,5.32
2017-10-03T07:34:19.286Z,3.58
2017-10-03T07:37:21.343Z,2.90
2017-10-03T07:40:23.703Z,3.08
2017-10-03T07:43:25.747Z,2.97
2017-10-03T07:46:28.112Z,3.22
2017-10-03T07:49:30.062Z,2.87
2017-10-03T07:52:32.410Z,2.55
2017-10-03T07:55:34.352Z,2.80
2017-10-03T07:58:36.709Z,2.35
2017-10-03T08:01:38.658Z,2.33
2017-10-03T08:04:41.020Z,2.70
2017-10-03T08:07:42.966Z,2.95
2017-10-03T08:10:45.340Z,2.45
2017-10-03T08:13:48.287Z,2.60
2017-10-03T08:16:50.561Z,3.03
2017-10-03T08:19:52.500Z,3.17
2017-10-03T08:22:55.879Z,2.62
2017-10-03T08:25:57.933Z,2.70
2017-10-03T08:29:00.281Z,2.40
2017-10-03T08:32:02.229Z,2.50
2017-10-03T08:35:05.115Z,2.47
2017-10-03T08:38:07.160Z,2.70
2017-10-03T08:41:09.513Z,2.17
2017-10-03T08:44:12.435Z,2.62
2017-10-03T08:47:14.727Z,2.33
2017-10-03T08:50:16.655Z,2.25
2017-10-03T08:53:19.759Z,1.60
2017-10-03T08:56:21.812Z,1.48
2017-10-03T08:59:24.158Z,1.42
2017-10-03T09:02:26.120Z,1.80
2017-10-03T09:05:28.482Z,1.83
2017-10-03T09:08:30.410Z,1.70
2017-10-03T09:11:33.372Z,1.80
2017-10-03T09:14:36.068Z,1.48
2017-10-03T09:17:38.434Z,1.50
2017-10-03T09:20:41.026Z,1.83
2017-10-03T09:23:44.881Z,2.00
2017-10-03T09:26:46.931Z,1.83
2017-10-03T09:29:49.283Z,1.90
2017-10-03T09:32:51.231Z,2.08
2017-10-03T09:35:53.585Z,2.15
2017-10-03T09:38:55.525Z,2.10
2017-10-03T09:41:57.810Z,1.55
2017-10-03T09:44:59.954Z,1.55
2017-10-03T09:48:02.297Z,1.35
2017-10-03T09:51:04.242Z,2.08
2017-10-03T09:54:06.605Z,1.65
2017-10-03T09:57:08.544Z,1.95
2017-10-03T10:00:10.810Z,2.05
2017-10-03T10:03:12.752Z,2.03
2017-10-03T10:06:15.097Z,1.70
2017-10-03T10:09:17.032Z,1.58
2017-10-03T10:12:20.179Z,1.73
2017-10-03T10:15:22.391Z,1.85
2017-10-03T10:18:24.755Z,2.25
2017-10-03T10:21:26.798Z,1.48
2017-10-03T10:24:29.146Z,1.58
2017-10-03T10:27:31.093Z,1.65
2017-10-03T10:30:33.472Z,1.33
2017-10-03T10:33:35.527Z,1.12
2017-10-03T10:36:37.875Z,1.83
2017-10-03T10:39:39.894Z,1.42
2017-10-03T10:42:42.934Z,1.05
2017-10-03T10:45:44.946Z,1.35
2017-10-03T10:48:47.311Z,1.27
2017-10-03T10:51:49.350Z,1.45
2017-10-03T10:54:51.622Z,1.40
2017-10-03T10:57:53.567Z,1.10
2017-10-03T11:00:56.032Z,0.77
2017-10-03T11:03:58.067Z,1.25
2017-10-03T11:07:00.415Z,1.20
2017-10-03T11:10:02.422Z,0.93
2017-10-03T11:13:05.570Z,1.10
2017-10-03T11:16:07.595Z,0.88
2017-10-03T11:19:09.881Z,1.05
2017-10-03T11:22:11.819Z,1.55
2017-10-03T11:25:14.163Z,0.98
2017-10-03T11:28:16.101Z,1.20
2017-10-03T11:31:18.482Z,1.10
2017-10-03T11:34:20.535Z,1.45
2017-10-03T11:37:22.825Z,1.00
2017-10-03T11:40:25.946Z,1.10
2017-10-03T11:43:28.242Z,1.42
2017-10-03T11:46:30.188Z,1.23
2017-10-03T11:49:33.325Z,1.00
2017-10-03T11:52:35.318Z,1.10
2017-10-03T11:55:38.476Z,1.33
2017-10-03T11:58:40.418Z,0.75
2017-10-03T12:01:42.754Z,0.93
2017-10-03T12:04:44.701Z,1.15
2017-10-03T12:07:47.056Z,0.80
2017-10-03T12:10:49.004Z,1.12
2017-10-03T12:13:51.383Z,0.95
2017-10-03T12:16:53.414Z,1.02
2017-10-03T12:19:55.771Z,1.00
2017-10-03T12:22:57.999Z,1.50
2017-10-03T12:26:01.103Z,1.20
2017-10-03T12:29:03.045Z,1.40
2017-10-03T12:32:05.426Z,1.30
2017-10-03T12:35:07.461Z,0.98
2017-10-03T12:38:09.802Z,0.93
2017-10-03T12:41:11.732Z,1.33
2017-10-03T12:44:14.868Z,1.12
2017-10-03T12:47:16.901Z,1.00
2017-10-03T12:50:19.267Z,0.70
2017-10-03T12:53:21.192Z,0.65
2017-10-03T12:56:23.963Z,0.60
2017-10-03T12:59:25.931Z,0.82
2017-10-03T13:02:28.262Z,0.73
2017-10-03T13:05:30.297Z,0.52
2017-10-03T13:08:32.692Z,0.70
2017-10-03T13:11:35.694Z,0.68
2017-10-03T13:14:37.956Z,0.90
2017-10-03T13:17:39.963Z,0.88
2017-10-03T13:20:42.348Z,0.52
2017-10-03T13:23:45.172Z,1.02
2017-10-03T13:26:47.552Z,0.88
2017-10-03T13:29:49.687Z,0.95
2017-10-03T13:32:52.205Z,0.98
2017-10-03T13:35:54.199Z,1.10
2017-10-03T13:38:56.546Z,0.70
2017-10-03T13:41:58.484Z,0.90
2017-10-03T13:45:01.574Z,0.70
2017-10-03T13:48:03.512Z,1.17
2017-10-03T13:51:05.876Z,0.85
2017-10-03T13:54:07.868Z,0.88
2017-10-03T13:57:10.191Z,0.98
2017-10-03T14:00:12.241Z,0.85
2017-10-03T14:03:14.687Z,0.90
2017-10-03T14:06:17.142Z,0.60
2017-10-03T14:09:19.578Z,0.70
2017-10-03T14:12:21.543Z,0.68
2017-10-03T14:15:24.713Z,0.70
2017-10-03T14:18:26.655Z,0.50
2017-10-03T14:21:29.235Z,0.80
2017-10-03T14:24:31.391Z,0.70
2017-10-03T14:27:34.500Z,0.85
2017-10-03T14:30:36.703Z,0.60
2017-10-03T14:33:39.035Z,0.75
2017-10-03T14:36:40.997Z,1.12
2017-10-03T14:39:43.367Z,0.85
2017-10-03T14:42:45.326Z,0.80
2017-10-03T14:45:47.687Z,0.95
2017-10-03T14:48:49.732Z,0.85
2017-10-03T14:51:52.106Z,0.70
2017-10-03T14:54:54.175Z,0.62
2017-10-03T14:57:57.306Z,0.93
2017-10-03T15:00:59.241Z,0.80
2017-10-03T15:04:01.528Z,1.33
2017-10-03T15:07:04.982Z,0.93
2017-10-03T15:10:07.355Z,0.80
2017-10-03T15:13:09.418Z,1.20
2017-10-03T15:16:11.758Z,0.85
2017-10-03T15:19:13.800Z,0.82
2017-10-03T15:22:16.176Z,1.20
2017-10-03T15:25:18.108Z,1.10
2017-10-03T15:28:20.370Z,1.23
2017-10-03T15:31:22.316Z,0.80
2017-10-03T15:34:24.686Z,0.88
2017-10-03T15:37:26.626Z,0.80
2017-10-03T15:40:28.994Z,1.00
2017-10-03T15:43:31.981Z,1.10
2017-10-03T15:46:35.210Z,1.20
2017-10-03T15:49:37.160Z,1.08
2017-10-03T15:52:39.532Z,1.10
2017-10-03T15:55:41.472Z,1.00
2017-10-03T15:58:43.893Z,0.90
2017-10-03T16:01:45.965Z,2.45
2017-10-03T16:04:48.307Z,2.35
2017-10-03T16:07:50.240Z,1.23
2017-10-03T16:10:52.602Z,1.37
2017-10-03T16:13:54.547Z,1.23
2017-10-03T16:16:56.907Z,1.20
2017-10-03T16:19:58.846Z,1.30
2017-10-03T16:23:01.220Z,1.15
2017-10-03T16:26:03.267Z,1.00
2017-10-03T16:29:05.647Z,1.20
2017-10-03T16:32:07.899Z,0.80
2017-10-03T16:35:10.226Z,1.23
2017-10-03T16:38:12.381Z,1.20
2017-10-03T16:41:14.847Z,1.15
2017-10-03T16:44:16.886Z,0.98
2017-10-03T16:47:19.258Z,1.00
2017-10-03T16:50:21.184Z,1.20
2017-10-03T16:53:23.556Z,1.25
2017-10-03T16:56:26.428Z,1.15
2017-10-03T16:59:28.788Z,1.08
2017-10-03T17:02:30.755Z,0.90
2017-10-03T17:05:33.042Z,1.10
2017-10-03T17:08:35.052Z,0.95
2017-10-03T17:11:38.160Z,1.20
2017-10-03T17:14:40.095Z,0.93
2017-10-03T17:17:42.413Z,1.20
2017-10-03T17:20:44.534Z,1.35
2017-10-03T17:23:47.657Z,2.17
2017-10-03T17:26:49.700Z,1.15
2017-10-03T17:29:52.078Z,1.00
2017-10-03T17:32:54.117Z,1.05
2017-10-03T17:35:56.473Z,1.05
2017-10-03T17:38:58.414Z,1.10
2017-10-03T17:42:00.755Z,1.20
2017-10-03T17:45:02.705Z,1.27
2017-10-03T17:48:05.067Z,0.73
2017-10-03T17:51:08.083Z,1.10
2017-10-03T17:54:10.505Z,1.08
2017-10-03T17:57:12.448Z,1.25
2017-10-03T18:00:14.874Z,1.20
2017-10-03T18:03:17.566Z,1.02
2017-10-03T18:06:20.518Z,1.17
2017-10-03T18:09:23.237Z,1.90
2017-10-03T18:12:25.573Z,1.30
2017-10-03T18:15:27.526Z,1.07
2017-10-03T18:18:30.796Z,1.40
2017-10-03T18:21:32.723Z,1.55
2017-10-03T18:24:35.819Z,1.20
2017-10-03T18:27:37.893Z,1.30
2017-10-03T18:30:40.320Z,1.20
2017-10-03T18:33:43.183Z,1.47
2017-10-03T18:36:45.867Z,1.30
2017-10-03T18:39:47.838Z,1.55
2017-10-03T18:42:50.167Z,1.13
2017-10-03T18:45:52.147Z,1.20
2017-10-03T18:48:54.479Z,1.23
2017-10-03T18:51:56.438Z,1.47
2017-10-03T18:54:58.801Z,1.20
2017-10-03T18:58:00.799Z,1.73
2017-10-03T19:01:04.009Z,1.50
2017-10-03T19:04:05.952Z,2.03
2017-10-03T19:07:08.349Z,2.23
2017-10-03T19:10:10.315Z,1.83
2017-10-03T19:13:12.650Z,2.50
2017-10-03T19:16:14.694Z,1.75
2017-10-03T19:19:17.089Z,2.17
2017-10-03T19:22:19.025Z,2.10
2017-10-03T19:25:21.353Z,2.47
2017-10-03T19:28:23.306Z,1.83
2017-10-03T19:31:25.649Z,1.80
2017-10-03T19:34:27.694Z,2.43
2017-10-03T19:37:30.056Z,2.63
2017-10-03T19:40:31.997Z,2.40
2017-10-03T19:43:34.448Z,2.73
2017-10-03T19:46:36.385Z,2.33
2017-10-03T19:49:38.862Z,2.50
2017-10-03T19:52:40.810Z,2.30
2017-10-03T19:55:43.184Z,2.30
2017-10-03T19:58:45.242Z,2.20
2017-10-03T20:01:47.633Z,2.10
2017-10-03T20:04:49.608Z,1.90
2017-10-03T20:07:52.045Z,1.90
2017-10-03T20:10:54.545Z,1.90
2017-10-03T20:13:56.922Z,1.50
2017-10-03T20:16:58.978Z,2.20
2017-10-03T20:20:01.322Z,2.73
2017-10-03T20:23:03.367Z,2.20
2017-10-03T20:26:06.296Z,3.23
2017-10-03T20:29:08.999Z,3.37
2017-10-03T20:32:11.363Z,2.60
2017-10-03T20:35:13.292Z,2.27
2017-10-03T20:38:15.577Z,2.17
2017-10-03T20:41:17.620Z,2.23
2017-10-03T20:44:19.980Z,2.43
2017-10-03T20:47:22.007Z,2.70
2017-10-03T20:50:24.409Z,2.30
2017-10-03T20:53:26.344Z,2.40
2017-10-03T20:56:29.281Z,2.10
2017-10-03T20:59:31.251Z,1.90
2017-10-03T21:02:34.263Z,2.70
2017-10-03T21:05:36.189Z,3.03
2017-10-03T21:08:38.546Z,2.47
2017-10-03T21:11:40.513Z,2.30
2017-10-03T21:14:42.828Z,2.80
2017-10-03T21:17:44.965Z,2.30
2017-10-03T21:20:48.167Z,2.17
2017-10-03T21:23:50.849Z,1.80
2017-10-03T21:26:53.194Z,2.53
2017-10-03T21:29:55.135Z,1.80
2017-10-03T21:32:57.499Z,2.53
2017-10-03T21:35:59.437Z,1.87
2017-10-03T21:39:02.851Z,2.00
2017-10-03T21:42:16.688Z,2.50
2017-10-03T21:45:19.109Z,2.63
2017-10-03T21:48:21.050Z,2.77
2017-10-03T21:51:23.416Z,2.00
2017-10-03T21:54:25.456Z,2.20
2017-10-03T21:57:28.786Z,2.03
2017-10-03T22:00:30.738Z,1.87
2017-10-03T22:03:33.056Z,2.60
2017-10-03T22:06:34.993Z,2.20
2017-10-03T22:09:37.360Z,2.60
2017-10-03T22:12:39.342Z,2.83
2017-10-03T22:15:43.203Z,2.23
2017-10-03T22:18:45.248Z,2.60
2017-10-03T22:21:47.606Z,2.20
2017-10-03T22:24:49.535Z,2.27
2017-10-03T22:27:51.830Z,2.43
2017-10-03T22:30:54.616Z,2.27
2017-10-03T22:33:56.980Z,2.33
2017-10-03T22:36:58.927Z,2.73
2017-10-03T22:40:01.191Z,2.73
2017-10-03T22:43:03.130Z,2.53
2017-10-03T22:46:05.432Z,2.23
2017-10-03T22:49:07.374Z,2.97
2017-10-03T22:52:09.735Z,2.30
2017-10-03T22:55:12.711Z,2.87
2017-10-03T22:58:15.215Z,2.10
2017-10-03T23:01:17.221Z,1.90
2017-10-03T23:04:19.579Z,2.07
2017-10-03T23:07:21.633Z,2.00
2017-10-03T23:10:24.022Z,2.20
2017-10-03T23:13:26.040Z,2.00
2017-10-03T23:16:28.307Z,2.07
2017-10-03T23:19:30.310Z,2.10
2017-10-03T23:22:33.412Z,2.37
2017-10-03T23:25:35.331Z,1.93
2017-10-03T23:28:38.431Z,1.70
2017-10-03T23:31:40.402Z,1.83
2017-10-03T23:34:42.953Z,2.20
2017-10-03T23:37:44.897Z,1.50
2017-10-03T23:40:47.283Z,2.30
2017-10-03T23:43:49.271Z,2.30
2017-10-03T23:46:52.661Z,2.50
2017-10-03T23:49:55.367Z,2.00
2017-10-03T23:52:57.731Z,2.30
2017-10-03T23:55:59.678Z,2.20
2017-10-03T23:59:02.020Z,1.70
